Time;durP1;ratioP1;P1;durP2;ratioP2;P2;SDS_P1;SDS_P2;PMS_P1;PMS_P2;Temp;Humidity;BMP_temperature;BMP_pressure;BME280_temperature;BME280_humidity;BME280_pressure;Samples;Min_cycle;Max_cycle;Signal;HPM_P1;HPM_P2
2022/04/19 00:03:12;;;;;;;3.13;2.80;;;;;;;6.39;58.78;99875.66;10182223;29;20040;-79
2022/04/19 00:08:16;;;;;;;3.13;2.60;;;;;;;6.34;58.29;99864.44;10192342;29;20414;-80
2022/04/19 00:13:17;;;;;;;4.13;2.80;;;;;;;6.16;58.65;99860.38;10189398;29;20051;-79
2022/04/19 00:18:21;;;;;;;2.95;2.67;;;;;;;5.81;60.54;99862.63;10195941;29;20044;-80
2022/04/19 00:23:23;;;;;;;3.47;2.80;;;;;;;5.82;61.29;99859.13;10207092;29;20055;-79
2022/04/19 00:28:26;;;;;;;3.50;3.20;;;;;;;6.21;60.47;99848.09;10212551;29;20084;-79
2022/04/19 00:33:31;;;;;;;3.55;2.80;;;;;;;6.28;60.09;99858.41;10214150;29;20071;-80
2022/04/19 00:38:32;;;;;;;4.93;3.22;;;;;;;6.18;60.57;99842.94;10211914;29;20070;-79
2022/04/19 00:43:34;;;;;;;4.05;3.63;;;;;;;5.71;62.49;99845.41;10210040;29;20092;-79
2022/04/19 00:48:36;;;;;;;3.42;3.00;;;;;;;5.62;62.95;99852.47;10222796;29;20032;-79
2022/04/19 00:53:39;;;;;;;3.55;3.25;;;;;;;5.92;63.85;99848.56;10224776;29;20032;-80
2022/04/19 00:58:42;;;;;;;3.42;2.92;;;;;;;5.74;63.46;99836.66;10211833;29;20071;-79
2022/04/19 01:03:44;;;;;;;4.60;3.05;;;;;;;6.00;62.67;99829.31;10196923;29;20048;-79
2022/04/19 01:08:52;;;;;;;2.78;2.50;;;;;;;5.69;63.56;99823.69;10192293;29;20083;-79
2022/04/19 01:13:55;;;;;;;3.53;3.22;;;;;;;5.75;64.44;99818.34;10210061;29;20044;-80
2022/04/19 01:18:59;;;;;;;3.35;2.88;;;;;;;6.00;63.71;99804.97;10208861;29;20020;-79
2022/04/19 01:24:01;;;;;;;4.57;3.30;;;;;;;6.14;62.65;99813.41;10224475;29;20036;-78
2022/04/19 01:29:03;;;;;;;5.13;3.42;;;;;;;5.76;64.57;99806.19;10224961;29;20032;-78
2022/04/19 01:34:05;;;;;;;4.55;3.42;;;;;;;5.76;64.66;99806.19;10224901;29;20035;-79
2022/04/19 01:39:10;;;;;;;3.60;3.30;;;;;;;5.76;64.87;99795.78;10224721;29;20072;-80
2022/04/19 01:44:17;;;;;;;3.75;3.30;;;;;;;5.75;65.31;99788.81;10209695;29;20036;-78
2022/04/19 01:49:20;;;;;;;3.63;3.08;;;;;;;5.80;64.52;99784.41;10225129;29;20028;-79
2022/04/19 01:54:23;;;;;;;4.53;3.65;;;;;;;5.79;64.73;99782.66;10232156;29;20056;-79
2022/04/19 01:59:25;;;;;;;4.25;3.85;;;;;;;5.73;64.95;99780.16;10232409;29;20059;-79
2022/04/19 02:04:39;;;;;;;4.43;3.72;;;;;;;5.70;65.62;99768.03;10231999;29;20079;-78
2022/04/19 02:09:40;;;;;;;4.43;4.03;;;;;;;5.53;66.75;99780.47;10231543;29;20082;-77
2022/04/19 02:14:44;;;;;;;5.15;3.95;;;;;;;5.89;65.91;99781.63;10215858;29;20060;-79
2022/04/19 02:19:48;;;;;;;4.53;4.03;;;;;;;5.69;66.55;99775.88;10231129;29;20051;-78
2022/04/19 02:24:50;;;;;;;3.95;3.55;;;;;;;5.60;67.25;99768.22;10231732;29;20048;-78
2022/04/19 02:29:52;;;;;;;3.65;3.30;;;;;;;5.53;67.83;99767.41;10231193;29;20064;-79
2022/04/19 02:34:54;;;;;;;8.95;4.45;;;;;;;5.62;67.56;99764.66;10230392;29;20107;-79
2022/04/19 02:39:55;;;;;;;3.97;3.53;;;;;;;5.52;68.44;99763.97;10229953;29;20028;-79
2022/04/19 02:44:57;;;;;;;4.75;3.70;;;;;;;5.56;68.26;99755.22;10229483;29;20051;-80
2022/04/19 02:50:01;;;;;;;4.32;3.92;;;;;;;5.84;67.44;99741.69;10225110;29;20052;-79
2022/04/19 02:55:04;;;;;;;4.45;3.80;;;;;;;5.77;67.60;99738.34;10218627;29;20079;-79
2022/04/19 03:00:06;;;;;;;6.22;4.22;;;;;;;5.60;68.41;99742.13;10227944;29;20085;-79
2022/04/19 03:05:09;;;;;;;3.85;3.35;;;;;;;5.64;68.53;99738.59;10227599;29;20025;-79
2022/04/19 03:10:11;;;;;;;4.10;3.70;;;;;;;5.53;68.87;99737.03;10228261;29;20048;-79
2022/04/19 03:15:15;;;;;;;3.92;3.53;;;;;;;5.62;68.94;99745.56;10212236;29;20032;-79
2022/04/19 03:20:17;;;;;;;5.10;3.60;;;;;;;5.51;69.47;99732.72;10210421;29;20040;-78
2022/04/19 03:30:40;;;;;;;4.30;3.90;;;;;;;5.30;71.19;99726.06;10228132;29;20032;-79
2022/04/19 03:35:42;;;;;;;4.78;3.90;;;;;;;5.18;71.26;99724.53;10221961;29;20039;-79
2022/04/19 03:40:46;;;;;;;4.30;3.90;;;;;;;5.10;71.31;99720.31;10218844;29;20068;-79
2022/04/19 03:45:48;;;;;;;3.95;3.65;;;;;;;5.07;71.62;99719.47;10216841;29;20063;-79
2022/04/19 03:50:51;;;;;;;4.53;4.13;;;;;;;5.13;71.48;99733.28;10214077;29;20079;-78
2022/04/19 03:55:53;;;;;;;3.33;3.03;;;;;;;5.09;70.73;99739.41;10209910;29;20052;-79
2022/04/19 04:00:55;;;;;;;3.55;3.15;;;;;;;5.17;70.11;99735.81;10197416;29;20059;-80
2022/04/19 04:05:57;;;;;;;4.30;3.90;;;;;;;5.20;69.65;99729.72;10203412;29;20043;-79
2022/04/19 04:10:59;;;;;;;3.88;3.55;;;;;;;5.22;69.30;99725.31;10201745;29;20105;-79
2022/04/19 04:16:06;;;;;;;3.70;3.38;;;;;;;5.20;68.71;99725.34;10208216;29;20052;-78
2022/04/19 04:21:08;;;;;;;3.50;3.20;;;;;;;5.22;66.12;99734.03;10219823;29;20044;-78
2022/04/19 04:26:10;;;;;;;3.47;3.13;;;;;;;5.26;65.62;99730.47;10218380;29;20115;-79
2022/04/19 04:31:12;;;;;;;3.65;3.10;;;;;;;5.23;64.52;99735.75;10218936;29;20052;-79
2022/04/19 04:36:14;;;;;;;4.47;3.22;;;;;;;5.28;63.80;99730.47;10215806;29;20096;-80
2022/04/19 04:41:16;;;;;;;3.83;3.42;;;;;;;5.25;64.26;99723.53;10213057;29;20052;-79
2022/04/19 04:51:38;;;;;;;3.50;2.55;;;;;;;5.55;63.93;99730.03;10178958;29;20410;-80
2022/04/19 04:56:40;;;;;;;3.22;2.83;;;;;;;5.42;63.55;99727.66;10191415;29;20051;-80
2022/04/19 05:01:42;;;;;;;3.20;2.80;;;;;;;5.60;63.10;99743.00;10173750;29;20055;-79
2022/04/19 05:06:43;;;;;;;4.35;3.00;;;;;;;5.27;64.07;99742.63;10189916;29;20071;-79
2022/04/19 05:11:52;;;;;;;3.35;3.05;;;;;;;5.49;63.72;99737.97;10177450;29;20044;-79
2022/04/19 05:16:58;;;;;;;3.35;3.05;;;;;;;5.29;64.52;99748.66;10192070;29;20085;-79
2022/04/19 05:22:00;;;;;;;3.42;3.13;;;;;;;5.42;64.37;99731.09;10191396;29;20518;-80
2022/04/19 05:27:04;;;;;;;3.78;3.05;;;;;;;5.63;63.81;99724.69;10200639;29;20051;-80
2022/04/19 05:32:07;;;;;;;3.17;2.88;;;;;;;5.74;63.55;99730.56;10203737;29;20040;-79
2022/04/19 05:37:09;;;;;;;4.03;3.22;;;;;;;5.70;63.42;99752.38;10202338;29;20052;-79
2022/04/19 05:42:12;;;;;;;4.55;3.42;;;;;;;5.76;63.51;99746.22;10201001;29;20071;-79
2022/04/19 05:47:15;;;;;;;3.92;3.53;;;;;;;6.18;62.55;99747.22;10201565;29;20052;-80
2022/04/19 05:52:19;;;;;;;3.30;3.00;;;;;;;6.41;61.50;99741.56;10213191;29;20111;-78
2022/04/19 05:57:21;;;;;;;3.70;3.40;;;;;;;6.21;62.08;99741.97;10211355;29;20055;-80
2022/04/19 06:07:45;;;;;;;4.38;3.47;;;;;;;6.97;59.05;99731.69;10198559;29;20052;-81
2022/04/19 06:12:48;;;;;;;3.92;3.28;;;;;;;7.20;58.43;99718.09;10197863;29;20072;-78
2022/04/19 06:17:51;;;;;;;4.30;3.90;;;;;;;7.34;58.42;99733.47;10193089;29;20116;-78
2022/04/19 06:23:11;;;;;;;3.92;3.20;;;;;;;7.19;57.68;99739.06;10202278;29;20048;-80
2022/04/19 06:28:16;;;;;;;4.75;3.15;;;;;;;7.52;57.53;99734.78;10201222;29;20057;-81
2022/04/19 06:33:38;;;;;;;4.55;3.38;;;;;;;7.51;57.13;99733.94;10205195;29;20056;-79
2022/04/19 06:38:41;;;;;;;4.03;3.50;;;;;;;7.06;58.80;99754.16;10207334;29;20047;-78
2022/04/19 06:43:43;;;;;;;4.10;3.60;;;;;;;7.40;58.48;99756.03;10199362;29;20048;-79
2022/04/19 06:48:54;;;;;;;4.45;3.95;;;;;;;7.13;58.83;99757.47;10201673;29;20053;-79
2022/04/19 06:53:56;;;;;;;4.85;3.72;;;;;;;7.09;59.53;99759.34;10203004;29;20087;-79
2022/04/19 06:59:08;;;;;;;10.00;3.78;;;;;;;7.22;59.85;99752.94;10191347;29;20085;-79
2022/04/19 07:04:11;;;;;;;4.15;3.75;;;;;;;7.02;59.36;99760.34;10206689;29;20112;-79
2022/04/19 07:09:23;;;;;;;4.65;3.63;;;;;;;7.36;59.37;99757.00;10207347;29;20418;-79
2022/04/19 07:14:26;;;;;;;6.35;4.43;;;;;;;7.57;57.40;99754.72;10207121;29;20107;-80
2022/04/19 07:30:18;;;;;;;6.18;3.88;;;;;;;8.03;55.02;99750.09;10186813;29;20502;-79
2022/04/19 07:35:20;;;;;;;5.88;4.30;;;;;;;8.18;54.75;99754.91;10170995;29;20048;-79
2022/04/19 07:40:22;;;;;;;5.20;4.00;;;;;;;8.42;54.19;99748.22;10184948;29;20052;-78
2022/04/19 07:45:24;;;;;;;6.22;3.78;;;;;;;8.49;54.11;99752.38;10226000;29;20052;-80
2022/04/19 07:50:25;;;;;;;4.45;4.03;;;;;;;8.12;54.24;99752.47;10226565;29;20089;-80
2022/04/19 07:55:27;;;;;;;4.65;3.65;;;;;;;8.47;55.07;99763.81;10226206;29;20138;-81
2022/04/19 08:00:30;;;;;;;6.47;4.43;;;;;;;9.06;53.97;99755.97;10226805;29;20039;-79
2022/04/19 08:05:32;;;;;;;4.22;3.70;;;;;;;9.66;51.61;99757.59;10209101;29;20082;-79
2022/04/19 08:10:34;;;;;;;4.35;3.58;;;;;;;9.25;51.93;99762.41;10225193;29;20047;-80
2022/04/19 08:15:37;;;;;;;4.20;3.80;;;;;;;9.32;52.19;99755.19;10230948;29;20519;-80
2022/04/19 08:20:43;;;;;;;3.95;3.55;;;;;;;10.09;49.77;99754.41;10227938;29;20067;-79
2022/04/19 08:25:45;;;;;;;5.72;3.90;;;;;;;10.46;48.98;99758.41;10235117;29;20048;-78
2022/04/19 08:30:46;;;;;;;5.82;4.15;;;;;;;10.44;48.63;99754.97;10244396;29;20052;-80
2022/04/19 08:35:55;;;;;;;3.83;3.42;;;;;;;10.02;49.88;99752.03;10233730;29;20079;-79
2022/04/19 08:40:58;;;;;;;5.05;3.65;;;;;;;10.59;47.97;99753.56;10239159;29;20414;-79
2022/04/19 08:46:01;;;;;;;8.15;3.58;;;;;;;11.28;46.01;99743.06;10221750;29;20047;-80
2022/04/19 08:51:05;;;;;;;3.40;3.00;;;;;;;11.54;43.92;99737.63;10236942;29;20103;-80
2022/04/19 09:01:29;;;;;;;3.72;2.53;;;;;;;12.29;40.94;99726.59;10228091;29;20048;-81
2022/04/19 09:06:51;;;;;;;4.13;2.63;;;;;;;12.32;41.70;99730.88;10225457;29;20047;-79
2022/04/19 09:12:02;;;;;;;3.50;3.17;;;;;;;12.59;39.92;99734.94;10224615;29;20047;-80
2022/04/19 09:17:10;;;;;;;3.13;2.60;;;;;;;12.92;38.93;99739.59;10224826;29;20391;-81
2022/04/19 09:22:24;;;;;;;6.35;2.78;;;;;;;12.67;37.69;99739.00;10226128;29;20043;-79
2022/04/19 09:27:33;;;;;;;5.68;3.10;;;;;;;12.15;37.09;99736.88;10222410;29;20051;-80
2022/04/19 09:32:35;;;;;;;3.17;2.88;;;;;;;12.01;37.99;99736.63;10225836;29;20044;-79
2022/04/19 09:37:36;;;;;;;3.88;2.53;;;;;;;12.35;36.89;99741.28;10222049;29;20043;-81
2022/04/19 09:42:38;;;;;;;3.05;2.75;;;;;;;13.12;36.83;99741.31;10223145;29;20099;-80
2022/04/19 09:47:51;;;;;;;7.25;2.90;;;;;;;13.45;37.58;99727.47;10222493;29;20048;-78
2022/04/19 09:52:52;;;;;;;4.20;3.20;;;;;;;13.75;36.22;99730.41;10222346;29;20051;-81
2022/04/19 09:57:55;;;;;;;3.20;2.75;;;;;;;13.68;36.50;99726.34;10221660;29;20486;-80
2022/04/19 10:08:28;;;;;;;3.53;2.25;;;;;;;12.60;35.00;99727.88;10169936;29;20124;-80
2022/04/19 10:13:32;;;;;;;3.53;3.00;;;;;;;12.84;33.44;99726.78;10226304;29;20080;-79
2022/04/19 10:18:40;;;;;;;2.53;1.88;;;;;;;12.72;34.73;99722.06;10235991;29;20079;-80
2022/04/19 10:23:42;;;;;;;2.22;1.90;;;;;;;12.85;34.24;99722.34;10230836;29;20451;-80
2022/04/19 10:28:45;;;;;;;3.35;1.70;;;;;;;12.95;34.60;99722.78;10238540;29;20083;-80
2022/04/19 10:33:51;;;;;;;2.85;2.20;;;;;;;13.21;34.75;99714.50;10262922;29;20099;-80
2022/04/19 10:39:11;;;;;;;5.97;1.57;;;;;;;12.59;33.71;99721.75;10252286;29;20051;-80
2022/04/19 10:44:43;;;;;;;3.78;2.58;;;;;;;12.44;35.14;99721.56;10227925;29;20046;-81
2022/04/19 10:50:01;;;;;;;4.35;2.65;;;;;;;12.38;34.67;99717.44;10247793;29;20139;-80
2022/04/19 10:55:18;;;;;;;1.95;1.40;;;;;;;12.43;35.11;99712.81;10261592;29;20493;-81
2022/04/19 11:00:42;;;;;;;2.65;1.52;;;;;;;11.93;36.30;99710.59;10242060;29;20048;-82
2022/04/19 11:06:09;;;;;;;4.10;1.40;;;;;;;11.98;36.04;99719.16;10227688;29;20052;-81
2022/04/19 11:11:22;;;;;;;2.65;1.58;;;;;;;13.12;34.09;99717.56;10228187;29;20069;-78
2022/04/19 11:16:45;;;;;;;4.93;2.13;;;;;;;14.09;33.74;99713.69;10209466;29;20048;-80
2022/04/19 11:21:53;;;;;;;2.97;1.40;;;;;;;13.36;34.02;99724.34;10226357;28;20123;-82
2022/04/19 11:26:54;;;;;;;4.57;1.25;;;;;;;12.49;34.18;99722.25;10226284;29;20036;-81
2022/04/19 11:31:56;;;;;;;4.28;1.00;;;;;;;13.34;33.91;99718.28;10225240;29;20482;-83
2022/04/19 11:36:59;;;;;;;1.77;1.05;;;;;;;12.93;33.90;99730.78;10225340;29;20087;-80
2022/04/19 11:47:24;;;;;;;4.13;2.05;;;;;;;12.55;35.49;99736.00;10225437;29;20060;-81
2022/04/19 11:52:26;;;;;;;1.50;0.90;;;;;;;13.12;35.13;99717.56;10224538;29;20099;-83
2022/04/19 11:57:28;;;;;;;2.15;1.08;;;;;;;12.71;34.89;99741.44;10224746;29;20054;-81
2022/04/19 12:02:29;;;;;;;2.90;1.00;;;;;;;12.32;36.06;99742.28;10225403;29;20051;-82
2022/04/19 12:07:31;;;;;;;4.90;1.60;;;;;;;11.75;36.95;99749.06;10225128;29;20529;-81
2022/04/19 12:12:33;;;;;;;5.93;3.60;;;;;;;12.01;36.77;99745.38;10248370;29;20039;-80
2022/04/19 12:17:45;;;;;;;3.17;2.87;;;;;;;12.85;35.77;99739.03;10250726;29;20040;-80
2022/04/19 12:22:48;;;;;;;2.00;1.23;;;;;;;13.38;34.44;99740.13;10230185;29;20050;-80
2022/04/19 12:27:51;;;;;;;3.83;1.55;;;;;;;13.04;34.34;99744.31;10226517;29;20048;-81
2022/04/19 12:32:55;;;;;;;9.48;6.60;;;;;;;12.09;35.91;99751.19;10226945;29;20079;-81
2022/04/19 12:38:08;;;;;;;3.35;1.50;;;;;;;11.87;36.12;99758.28;10240911;29;20047;-81
2022/04/19 12:43:14;;;;;;;2.13;1.40;;;;;;;11.42;37.96;99769.72;10223909;29;20052;-80
2022/04/19 12:48:20;;;;;;;1.88;0.93;;;;;;;11.74;38.12;99760.50;10229231;29;20130;-80
2022/04/19 12:53:25;;;;;;;1.40;1.10;;;;;;;12.28;35.91;99755.66;10228588;29;20044;-81
2022/04/19 13:04:43;;;;;;;2.85;1.48;;;;;;;12.14;36.26;99752.78;10251378;29;20056;-82
2022/04/19 13:15:06;;;;;;;2.15;1.20;;;;;;;11.29;37.50;99766.69;10258962;29;20079;-81
2022/04/19 13:20:11;;;;;;;4.60;1.10;;;;;;;11.31;37.15;99758.75;10235721;29;20104;-81
2022/04/19 13:25:13;;;;;;;3.55;1.00;;;;;;;11.29;37.82;99757.97;10223155;29;20455;-81
2022/04/19 13:30:16;;;;;;;7.22;1.10;;;;;;;11.22;38.28;99764.34;10222456;29;20043;-81
2022/04/19 13:35:18;;;;;;;1.73;0.98;;;;;;;10.98;38.54;99772.28;10221319;29;20494;-81
2022/04/19 13:40:21;;;;;;;1.88;1.40;;;;;;;10.79;41.22;99781.75;10222200;29;20455;-78
2022/04/19 13:45:24;;;;;;;2.13;1.48;;;;;;;10.84;40.12;99778.03;10241681;29;20082;-80
2022/04/19 13:50:26;;;;;;;3.70;1.25;;;;;;;11.55;38.43;99777.94;10236988;29;20413;-81
2022/04/19 13:55:28;;;;;;;1.35;1.00;;;;;;;11.66;38.48;99761.75;10257518;29;20123;-81
2022/04/19 14:00:30;;;;;;;6.47;1.20;;;;;;;12.02;36.55;99768.16;10245843;29;20081;-80
2022/04/19 14:05:31;;;;;;;3.30;1.15;;;;;;;11.60;36.81;99770.75;10231155;29;20541;-81
2022/04/19 14:10:33;;;;;;;4.32;1.05;;;;;;;11.23;37.40;99781.84;10230323;29;20059;-81
2022/04/19 14:15:34;;;;;;;1.73;1.10;;;;;;;11.22;39.90;99786.25;10231393;29;20059;-81
2022/04/19 14:20:36;;;;;;;4.22;1.30;;;;;;;11.35;40.98;99794.53;10234456;29;20054;-81
2022/04/19 14:25:38;;;;;;;1.92;1.48;;;;;;;10.93;43.49;99807.53;10239622;29;20040;-81
2022/04/19 14:36:01;;;;;;;2.75;1.42;;;;;;;10.57;44.23;99823.72;10232899;29;20071;-82
2022/04/19 14:41:02;;;;;;;2.70;1.48;;;;;;;10.74;44.78;99823.97;10232513;29;20055;-82
2022/04/19 14:46:04;;;;;;;3.22;1.60;;;;;;;10.29;46.69;99831.69;10233753;29;20040;-79
2022/04/19 14:56:26;;;;;;;2.38;1.63;;;;;;;10.57;44.76;99823.72;10235496;29;20107;-80
2022/04/19 15:01:28;;;;;;;2.30;1.40;;;;;;;10.65;43.31;99826.09;10235596;29;20043;-80
2022/04/19 15:06:29;;;;;;;2.38;1.20;;;;;;;10.84;43.40;99832.38;10233511;29;20524;-81
2022/04/19 15:11:32;;;;;;;3.92;1.30;;;;;;;11.07;41.97;99844.72;10234521;29;20055;-81
2022/04/19 15:16:33;;;;;;;2.88;1.50;;;;;;;10.79;42.46;99835.19;10234358;29;20055;-81
2022/04/19 15:21:35;;;;;;;2.60;1.45;;;;;;;11.09;42.72;99838.47;10234114;29;20048;-80
2022/04/19 15:26:38;;;;;;;2.63;1.30;;;;;;;11.22;42.62;99840.66;10231863;29;20078;-80
2022/04/19 15:31:40;;;;;;;4.60;1.50;;;;;;;11.05;42.63;99843.91;10231919;29;20083;-81
2022/04/19 15:36:42;;;;;;;3.70;1.40;;;;;;;10.94;41.35;99848.72;10231861;29;20051;-79
2022/04/19 15:41:44;;;;;;;2.92;1.42;;;;;;;10.80;40.58;99841.28;10229938;29;20060;-81
2022/04/19 15:46:45;;;;;;;1.80;1.50;;;;;;;10.61;40.44;99847.22;10230897;29;20047;-79
2022/04/19 15:51:48;;;;;;;1.80;1.50;;;;;;;10.64;40.09;99854.13;10214048;29;20048;-81
2022/04/19 15:56:50;;;;;;;2.47;1.52;;;;;;;10.63;40.72;99846.31;10229970;29;20051;-80
2022/04/19 16:01:52;;;;;;;3.85;1.52;;;;;;;10.43;41.22;99839.09;10231338;29;20044;-81
2022/04/19 16:06:54;;;;;;;1.48;1.30;;;;;;;10.61;40.81;99855.09;10233488;29;20498;-80
2022/04/19 16:11:55;;;;;;;2.63;1.75;;;;;;;10.33;41.09;99851.72;10228518;29;20115;-79
2022/04/19 16:27:37;;;;;;;2.63;1.50;;;;;;;10.37;41.30;99879.59;10228982;29;20067;-79
2022/04/19 16:32:45;;;;;;;3.92;2.40;;;;;;;10.38;40.92;99880.44;10231180;29;20044;-79
2022/04/19 16:37:46;;;;;;;2.50;1.92;;;;;;;10.24;43.70;99888.75;10227796;29;20498;-80
2022/04/19 16:42:48;;;;;;;3.05;1.95;;;;;;;9.83;45.51;99891.81;10228541;29;20043;-79
2022/04/19 16:47:50;;;;;;;4.38;1.90;;;;;;;9.37;46.87;99896.69;10243838;29;20040;-79
2022/04/19 16:52:51;;;;;;;2.38;2.10;;;;;;;9.51;46.67;99905.00;10255111;29;20035;-80
2022/04/19 16:57:53;;;;;;;3.50;2.15;;;;;;;9.45;47.16;99902.59;10255362;29;20048;-79
2022/04/19 17:08:20;;;;;;;4.45;2.40;;;;;;;9.30;47.08;99917.00;10240859;29;20079;-80
2022/04/19 17:13:23;;;;;;;2.55;1.95;;;;;;;9.24;46.45;99920.66;10246081;29;20040;-81
2022/04/19 17:18:24;;;;;;;4.70;2.20;;;;;;;9.13;47.27;99929.72;10229239;29;20055;-79
2022/04/19 17:23:26;;;;;;;2.70;2.42;;;;;;;9.00;47.42;99929.22;10240711;29;20409;-80
2022/04/19 17:28:29;;;;;;;3.33;2.42;;;;;;;9.12;48.20;99935.84;10255077;29;20089;-79
2022/04/19 17:33:30;;;;;;;4.13;3.00;;;;;;;9.07;49.09;99947.34;10259753;29;20054;-81
2022/04/19 17:38:32;;;;;;;4.47;2.15;;;;;;;8.94;49.65;99948.59;10240116;29;20047;-79
2022/04/19 17:43:34;;;;;;;3.58;2.55;;;;;;;8.69;50.18;99943.09;10237192;29;20044;-79
2022/04/19 17:48:37;;;;;;;4.00;2.47;;;;;;;8.81;50.46;99953.28;10235711;29;20094;-80
2022/04/19 17:59:03;;;;;;;4.38;2.63;;;;;;;8.54;51.59;99967.94;10236017;29;20044;-80
2022/04/19 18:04:05;;;;;;;3.42;2.95;;;;;;;8.48;51.49;99970.69;10235863;29;20107;-80
2022/04/19 18:09:07;;;;;;;2.78;2.45;;;;;;;8.43;51.83;99980.44;10241425;29;20094;-78
2022/04/19 18:14:10;;;;;;;2.92;2.63;;;;;;;8.47;51.14;99989.09;10245435;29;20051;-78
2022/04/19 18:19:12;;;;;;;3.72;2.47;;;;;;;8.48;50.61;99996.03;10233542;29;20043;-78
2022/04/19 18:29:33;;;;;;;2.65;2.28;;;;;;;8.18;50.88;100002.81;10242656;29;20055;-79
2022/04/19 18:34:35;;;;;;;2.10;1.90;;;;;;;8.09;51.47;100007.34;10250518;29;20044;-80
2022/04/19 18:39:37;;;;;;;2.72;2.28;;;;;;;8.03;51.25;100011.88;10251331;29;20505;-80
2022/04/19 18:44:40;;;;;;;3.20;2.78;;;;;;;7.86;51.33;100025.31;10232188;29;20050;-79
2022/04/19 18:49:41;;;;;;;3.80;2.30;;;;;;;7.96;50.50;100031.19;10233095;29;20051;-79
2022/04/19 18:54:43;;;;;;;2.80;2.22;;;;;;;7.61;51.03;100040.63;10214389;29;20055;-80
2022/04/19 18:59:44;;;;;;;3.70;2.70;;;;;;;7.57;52.26;100046.84;10233438;29;20071;-79
2022/04/19 19:04:46;;;;;;;3.40;2.58;;;;;;;7.31;53.33;100048.19;10234334;29;20502;-80
2022/04/19 19:09:48;;;;;;;3.45;3.13;;;;;;;7.20;54.24;100067.56;10235733;29;20051;-81
2022/04/19 19:14:50;;;;;;;3.03;2.83;;;;;;;6.87;55.13;100064.63;10233601;29;20044;-83
2022/04/19 19:19:51;;;;;;;3.97;2.92;;;;;;;6.83;55.51;100069.03;10232193;29;20058;-82
2022/04/19 19:24:53;;;;;;;4.30;3.17;;;;;;;7.00;56.94;100080.97;10233656;29;20051;-81
2022/04/19 19:29:55;;;;;;;6.32;5.80;;;;;;;7.12;56.12;100087.72;10233946;29;20055;-81
2022/04/19 19:34:56;;;;;;;5.30;4.80;;;;;;;6.66;57.52;100094.56;10234618;29;20074;-81
2022/04/19 19:39:58;;;;;;;4.28;3.60;;;;;;;6.63;57.86;100094.59;10232666;29;20050;-82
2022/04/19 19:45:00;;;;;;;4.68;4.28;;;;;;;6.39;58.22;100098.44;10228918;29;20047;-80
2022/04/19 19:50:04;;;;;;;4.88;3.85;;;;;;;6.32;58.85;100104.59;10234472;29;20087;-80
2022/04/19 19:55:07;;;;;;;4.60;3.88;;;;;;;6.13;59.04;100110.97;10232828;29;20048;-80
2022/04/19 20:00:09;;;;;;;4.68;4.28;;;;;;;6.01;59.46;100101.53;10229811;29;20442;-80
2022/04/19 20:05:16;;;;;;;4.90;4.43;;;;;;;6.05;59.99;100116.25;10231779;29;20080;-79
2022/04/19 20:10:17;;;;;;;4.90;4.20;;;;;;;5.77;60.68;100111.34;10232925;29;20044;-81
2022/04/19 20:15:19;;;;;;;4.57;4.18;;;;;;;5.79;60.51;100108.69;10229172;29;20124;-80
2022/04/19 20:20:21;;;;;;;4.05;3.65;;;;;;;5.52;61.55;100115.94;10229493;29;20063;-80
2022/04/19 20:25:22;;;;;;;4.88;4.47;;;;;;;5.50;61.78;100111.63;10213323;29;20410;-80
2022/04/19 20:30:24;;;;;;;6.63;3.83;;;;;;;5.45;61.88;100111.69;10232932;29;20064;-80
2022/04/19 20:35:26;;;;;;;5.20;4.70;;;;;;;5.22;62.69;100117.09;10236614;29;20043;-80
2022/04/19 20:40:30;;;;;;;5.97;4.80;;;;;;;5.25;62.90;100116.19;10222355;29;20056;-80
2022/04/19 20:45:31;;;;;;;5.28;4.82;;;;;;;5.40;63.18;100120.41;10239405;29;20091;-80
2022/04/19 20:50:38;;;;;;;6.30;5.70;;;;;;;5.36;63.18;100118.69;10248930;29;20055;-81
2022/04/19 20:55:40;;;;;;;5.80;5.30;;;;;;;4.96;64.29;100126.88;10255412;29;20052;-82
2022/04/19 21:00:43;;;;;;;5.70;5.13;;;;;;;5.04;64.64;100120.69;10258616;29;20063;-79
2022/04/19 21:05:45;;;;;;;6.00;5.43;;;;;;;4.89;64.61;100130.38;10239804;29;20111;-79
2022/04/19 21:10:47;;;;;;;6.10;5.50;;;;;;;4.97;65.37;100124.25;10246714;29;20088;-79
2022/04/19 21:15:49;;;;;;;6.57;5.35;;;;;;;4.78;66.06;100127.84;10227258;29;20055;-79
2022/04/19 21:20:53;;;;;;;5.80;5.30;;;;;;;4.58;66.23;100129.72;10241667;29;20047;-78
2022/04/19 21:25:55;;;;;;;5.72;5.22;;;;;;;4.45;66.63;100137.59;10242811;29;20044;-78
2022/04/19 21:31:07;;;;;;;6.20;5.57;;;;;;;4.39;66.79;100126.38;10251556;29;20052;-78
2022/04/19 21:36:08;;;;;;;6.35;5.82;;;;;;;4.53;67.43;100128.00;10239931;28;20082;-79
2022/04/19 21:41:10;;;;;;;6.07;5.47;;;;;;;4.36;67.64;100132.44;10256835;29;20035;-79
2022/04/19 21:46:12;;;;;;;6.63;6.03;;;;;;;4.26;67.95;100126.41;10246503;29;20043;-79
2022/04/19 21:51:14;;;;;;;7.18;6.40;;;;;;;4.23;68.32;100122.97;10243757;29;20080;-79
2022/04/19 21:56:16;;;;;;;6.93;6.22;;;;;;;4.39;67.70;100127.22;10247416;29;20048;-79
2022/04/19 22:01:21;;;;;;;7.15;6.45;;;;;;;4.46;67.12;100126.31;10256199;28;20071;-78
2022/04/19 22:06:24;;;;;;;7.45;6.72;;;;;;;4.21;68.05;100127.31;10253465;29;20545;-78
2022/04/19 22:11:25;;;;;;;10.50;5.80;;;;;;;3.85;68.67;100128.28;10251865;29;20060;-79
2022/04/19 22:16:27;;;;;;;13.45;7.15;;;;;;;3.57;68.95;100135.31;10245391;29;20107;-78
2022/04/19 22:21:29;;;;;;;7.13;6.50;;;;;;;3.61;68.93;100135.28;10243203;29;20127;-78
2022/04/19 22:26:30;;;;;;;6.82;6.03;;;;;;;3.76;68.48;100140.47;10238683;29;20062;-79
2022/04/19 22:31:32;;;;;;;6.78;6.15;;;;;;;3.39;70.16;100131.84;10241724;29;20051;-79
2022/04/19 22:36:34;;;;;;;7.03;6.20;;;;;;;3.29;70.41;100141.41;10245924;29;20119;-79
2022/04/19 22:41:36;;;;;;;6.45;5.47;;;;;;;3.49;70.65;100130.97;10237213;29;20087;-78
2022/04/19 22:46:37;;;;;;;6.63;6.03;;;;;;;3.48;70.17;100136.19;10245482;29;20044;-79
2022/04/19 22:51:39;;;;;;;6.28;5.78;;;;;;;3.29;71.22;100143.13;10258712;29;20054;-79
2022/04/19 22:56:40;;;;;;;5.80;5.28;;;;;;;3.20;70.97;100144.00;10249156;29;20039;-79
2022/04/19 23:01:42;;;;;;;5.53;5.03;;;;;;;3.27;70.52;100137.91;10247871;29;20040;-79
2022/04/19 23:06:44;;;;;;;6.75;6.15;;;;;;;3.44;69.73;100137.06;10257559;29;20051;-80
2022/04/19 23:11:45;;;;;;;5.97;5.40;;;;;;;3.24;69.58;100137.09;10263315;28;20059;-79
2022/04/19 23:16:47;;;;;;;7.03;6.43;;;;;;;2.82;71.79;100138.78;10249811;28;20119;-79
2022/04/19 23:21:48;;;;;;;6.25;5.65;;;;;;;3.01;71.87;100135.34;10266013;29;20027;-80
2022/04/19 23:32:11;;;;;;;7.22;5.75;;;;;;;3.01;70.55;100142.25;10248418;29;20461;-80
2022/04/19 23:37:13;;;;;;;5.97;5.47;;;;;;;2.53;72.72;100147.38;10249484;29;20048;-79
2022/04/19 23:42:14;;;;;;;6.00;5.40;;;;;;;2.62;72.83;100140.50;10229061;29;20116;-79
2022/04/19 23:47:16;;;;;;;6.10;5.45;;;;;;;2.37;73.48;100140.41;10248962;29;20078;-80
2022/04/19 23:52:17;;;;;;;6.68;6.10;;;;;;;2.51;73.07;100143.91;10266606;28;20136;-80
2022/04/19 23:57:19;;;;;;;6.75;6.15;;;;;;;2.48;72.60;100146.50;10266824;28;20063;-80
